Time;durP1;ratioP1;P1;durP2;ratioP2;P2;SDS_P1;SDS_P2;PMS_P1;PMS_P2;Temp;Humidity;BMP_temperature;BMP_pressure;BME280_temperature;BME280_humidity;BME280_pressure;Samples;Min_cycle;Max_cycle;Signal;HPM_P1;HPM_P2
2022/03/18 00:00:33;;;;;;;36.13;20.02;;;;;;;3.38;63.24;101666.88;4500204;31;34152;-70
2022/03/18 00:03:01;;;;;;;35.00;20.08;;;;;;;3.07;64.30;101674.47;4500066;31;33650;-69
2022/03/18 00:05:28;;;;;;;39.45;21.65;;;;;;;3.40;63.70;101669.41;4499925;31;33618;-68
2022/03/18 00:07:56;;;;;;;40.47;21.15;;;;;;;2.73;65.81;101669.75;4500433;31;34817;-70
2022/03/18 00:10:24;;;;;;;30.98;19.52;;;;;;;3.49;63.72;101677.37;4500118;31;34806;-68
2022/03/18 00:12:52;;;;;;;35.40;20.02;;;;;;;3.68;62.81;101678.19;4499587;31;33921;-69
2022/03/18 00:15:23;;;;;;;32.13;19.58;;;;;;;2.88;65.04;101675.44;4500204;31;34152;-69
2022/03/18 00:17:51;;;;;;;35.78;20.62;;;;;;;2.61;65.98;101678.97;4500207;31;34092;-68
2022/03/18 00:20:19;;;;;;;36.80;20.08;;;;;;;2.92;64.98;101674.16;4498595;31;33481;-69
2022/03/18 00:22:47;;;;;;;34.80;19.90;;;;;;;3.40;63.85;101682.84;4499934;31;34755;-68
2022/03/18 00:25:16;;;;;;;34.85;19.65;;;;;;;3.16;64.00;101676.25;4500184;31;33544;-68
2022/03/18 00:27:45;;;;;;;33.65;19.10;;;;;;;3.02;64.84;101682.13;4499989;31;33751;-68
2022/03/18 00:30:17;;;;;;;34.33;18.92;;;;;;;2.72;65.80;101680.63;4499866;31;34041;-67
2022/03/18 00:32:45;;;;;;;4.50;2.50;;;;;;;3.13;64.89;101687.25;4499731;31;33972;-69
2022/03/18 00:35:34;;;;;;;0.75;0.70;;;;;;;2.93;65.50;101691.09;4499953;31;33500;-68
2022/03/18 00:38:02;;;;;;;33.00;18.10;;;;;;;3.03;65.16;101689.19;4499840;31;33991;-70
2022/03/18 00:40:31;;;;;;;33.63;18.80;;;;;;;3.06;65.35;101695.06;4499994;31;34180;-68
2022/03/18 00:43:00;;;;;;;36.58;18.77;;;;;;;2.77;66.42;101691.75;4499501;31;34041;-68
2022/03/18 00:45:29;;;;;;;30.85;17.75;;;;;;;2.93;65.86;101693.75;4499532;31;33435;-67
2022/03/18 00:53:29;;;;;;;32.92;18.05;;;;;;;2.72;65.93;101694.03;4499644;31;33965;-69
2022/03/18 00:55:57;;;;;;;29.02;18.17;;;;;;;2.84;65.54;101698.19;4499677;31;34330;-70
2022/03/18 00:58:25;;;;;;;34.10;19.50;;;;;;;2.86;65.01;101688.16;4499610;31;33458;-68
2022/03/18 01:00:52;;;;;;;35.03;19.02;;;;;;;2.55;66.01;101696.53;4499216;31;34157;-70
2022/03/18 01:03:20;;;;;;;32.40;18.75;;;;;;;2.76;64.92;101698.09;4499416;31;33833;-69
2022/03/18 01:05:47;;;;;;;11.38;4.68;;;;;;;2.86;64.65;101704.25;4499530;31;34279;-70
2022/03/18 01:08:15;;;;;;;31.20;18.55;;;;;;;2.38;65.98;101699.97;4499442;31;35000;-69
2022/03/18 01:10:44;;;;;;;31.87;18.10;;;;;;;2.38;65.92;101698.13;4499147;31;34215;-70
2022/03/18 01:13:11;;;;;;;36.03;19.37;;;;;;;2.70;64.79;101696.00;4497947;31;33952;-69
2022/03/18 01:15:38;;;;;;;33.35;18.90;;;;;;;2.28;65.98;101702.69;4499286;31;34320;-70
2022/03/18 01:18:06;;;;;;;34.38;18.23;;;;;;;2.45;65.45;101701.91;4498891;31;33825;-70
2022/03/18 01:20:34;;;;;;;34.20;18.90;;;;;;;2.51;65.70;101700.47;4499117;31;34381;-69
2022/03/18 01:23:03;;;;;;;35.00;20.08;;;;;;;2.61;65.30;101705.78;4499139;31;33973;-69
2022/03/18 01:25:32;;;;;;;35.60;19.15;;;;;;;3.08;63.65;101705.66;4499432;31;33572;-67
2022/03/18 01:28:01;;;;;;;31.80;19.00;;;;;;;2.35;65.60;101694.91;4499133;31;33703;-70
2022/03/18 01:30:29;;;;;;;21.40;11.07;;;;;;;2.46;65.64;101702.75;4499130;31;34729;-68
2022/03/18 01:33:00;;;;;;;37.80;20.33;;;;;;;2.63;65.37;101704.63;4498477;31;34157;-69
2022/03/18 01:35:28;;;;;;;33.03;19.15;;;;;;;2.29;66.09;101707.06;4499046;31;34528;-69
2022/03/18 01:37:56;;;;;;;34.05;19.52;;;;;;;2.51;65.32;101702.31;4498736;31;34052;-70
2022/03/18 01:40:23;;;;;;;32.97;18.52;;;;;;;2.22;65.97;101701.41;4498951;31;34236;-69
2022/03/18 01:42:51;;;;;;;35.15;20.35;;;;;;;1.88;67.24;101705.59;4498739;31;34357;-67
2022/03/18 01:45:18;;;;;;;33.15;18.87;;;;;;;1.98;67.11;101709.94;4498925;31;33320;-67
2022/03/18 01:47:47;;;;;;;31.42;18.27;;;;;;;1.94;67.15;101708.53;4498674;31;34732;-68
2022/03/18 01:50:15;;;;;;;34.70;19.42;;;;;;;2.30;65.60;101714.09;4499074;31;33804;-68
2022/03/18 01:52:44;;;;;;;30.23;17.75;;;;;;;2.59;64.73;101722.03;4498647;31;33704;-68
2022/03/18 01:55:16;;;;;;;35.13;20.40;;;;;;;2.83;64.11;101720.63;4498793;31;34033;-69
2022/03/18 01:57:44;;;;;;;34.88;20.35;;;;;;;2.75;64.38;101723.22;4499896;31;34074;-68
2022/03/18 02:00:12;;;;;;;32.42;20.35;;;;;;;3.17;62.93;101722.69;4500836;31;35193;-69
2022/03/18 02:02:40;;;;;;;33.53;19.87;;;;;;;2.56;64.56;101724.16;4500935;31;33617;-69
2022/03/18 02:05:09;;;;;;;35.50;19.17;;;;;;;2.78;64.56;101722.91;4501169;31;33389;-68
2022/03/18 02:07:37;;;;;;;36.03;19.23;;;;;;;2.71;64.83;101721.81;4500869;31;33902;-70
2022/03/18 02:10:06;;;;;;;33.58;18.77;;;;;;;2.48;65.07;101719.50;4500886;31;34113;-69
2022/03/18 02:12:33;;;;;;;37.70;19.48;;;;;;;2.61;65.04;101724.53;4500918;31;33642;-68
2022/03/18 02:15:01;;;;;;;34.85;19.23;;;;;;;2.45;64.98;101725.19;4500720;31;33544;-68
2022/03/18 02:17:29;;;;;;;31.00;18.15;;;;;;;2.20;65.88;101718.63;4500820;31;34763;-68
2022/03/18 02:19:57;;;;;;;36.80;19.17;;;;;;;1.85;66.88;101728.97;4500769;31;35143;-68
2022/03/18 02:22:25;;;;;;;22.77;11.90;;;;;;;1.78;67.39;101737.75;4500985;31;34547;-68
2022/03/18 02:24:54;;;;;;;32.65;18.77;;;;;;;2.29;66.09;101739.19;4500924;31;34294;-68
2022/03/18 02:27:22;;;;;;;6.43;3.50;;;;;;;2.14;66.05;101741.50;4500976;31;34808;-69
2022/03/18 02:29:49;;;;;;;9.52;6.62;;;;;;;2.41;65.78;101745.22;4500851;31;34820;-68
2022/03/18 02:32:18;;;;;;;31.87;17.35;;;;;;;2.50;65.80;101743.50;4500820;31;33988;-69
2022/03/18 02:34:45;;;;;;;21.02;11.38;;;;;;;2.12;66.74;101745.31;4499741;31;34094;-68
2022/03/18 02:37:13;;;;;;;32.88;18.23;;;;;;;2.06;66.91;101749.41;4500663;31;34073;-68
2022/03/18 02:39:40;;;;;;;38.58;19.25;;;;;;;1.68;68.23;101750.28;4500803;31;34905;-67
2022/03/18 02:42:09;;;;;;;33.55;19.10;;;;;;;1.98;67.67;101757.28;4500837;31;34796;-69
2022/03/18 02:44:36;;;;;;;1.40;1.27;;;;;;;2.16;66.97;101757.41;4500358;31;34221;-69
2022/03/18 02:47:04;;;;;;;37.85;20.35;;;;;;;1.90;67.14;101757.16;4501000;31;34005;-67
2022/03/18 02:49:31;;;;;;;36.22;19.75;;;;;;;1.72;68.09;101760.56;4500419;31;34824;-69
2022/03/18 02:51:59;;;;;;;26.90;15.52;;;;;;;1.80;67.93;101755.34;4500622;31;33758;-68
2022/03/18 02:54:26;;;;;;;2.05;1.80;;;;;;;2.17;67.04;101767.12;4499726;31;33625;-68
2022/03/18 02:56:54;;;;;;;40.05;22.13;;;;;;;2.58;66.09;101773.09;4500624;31;33601;-70
2022/03/18 02:59:21;;;;;;;4.22;2.70;;;;;;;2.16;67.10;101771.66;4500569;31;33861;-67
2022/03/18 03:01:49;;;;;;;2.53;1.00;;;;;;;2.36;66.89;101768.94;4500741;31;34038;-68
2022/03/18 03:04:17;;;;;;;39.53;22.37;;;;;;;2.29;67.02;101775.84;4500415;31;33458;-67
2022/03/18 03:09:31;;;;;;;41.53;23.55;;;;;;;2.22;67.83;101781.75;4499531;31;34105;-68
2022/03/18 03:11:58;;;;;;;2.12;1.75;;;;;;;2.48;67.58;101783.81;4500193;31;33824;-67
2022/03/18 03:14:26;;;;;;;41.60;23.02;;;;;;;2.41;68.86;101785.41;4500232;31;33540;-67
2022/03/18 03:16:53;;;;;;;1.58;1.40;;;;;;;2.54;68.72;101791.28;4500429;31;33498;-67
2022/03/18 03:19:21;;;;;;;38.78;23.20;;;;;;;2.19;69.55;101800.81;4500433;31;34689;-66
2022/03/18 03:21:48;;;;;;;40.70;22.80;;;;;;;2.32;67.42;101805.88;4500590;31;34832;-68
2022/03/18 03:24:16;;;;;;;35.85;21.73;;;;;;;2.50;66.79;101799.75;4500133;31;33582;-67
2022/03/18 03:26:43;;;;;;;36.30;21.10;;;;;;;2.90;65.29;101802.16;4500214;31;33959;-68
2022/03/18 03:29:10;;;;;;;1.98;1.83;;;;;;;2.71;64.30;101797.72;4500769;31;34325;-67
2022/03/18 03:31:38;;;;;;;33.63;19.05;;;;;;;2.95;61.62;101805.22;4500156;31;35214;-69
2022/03/18 03:34:06;;;;;;;28.98;17.52;;;;;;;3.27;61.27;101820.03;4499792;31;33684;-68
2022/03/18 03:36:33;;;;;;;30.05;16.77;;;;;;;3.46;60.03;101822.59;4500554;31;33984;-67
2022/03/18 03:39:01;;;;;;;29.85;17.67;;;;;;;2.96;61.01;101825.69;4500661;31;34267;-67
2022/03/18 03:41:28;;;;;;;27.90;15.77;;;;;;;3.03;60.99;101834.00;4500206;31;33944;-66
2022/03/18 03:43:55;;;;;;;27.33;15.82;;;;;;;3.37;58.29;101841.44;4500069;31;33561;-66
2022/03/18 03:46:23;;;;;;;30.30;16.23;;;;;;;3.75;57.74;101843.03;4500445;31;34058;-68
2022/03/18 03:48:50;;;;;;;23.87;14.87;;;;;;;3.62;56.92;101840.72;4500122;31;33791;-69
2022/03/18 03:51:18;;;;;;;26.77;15.70;;;;;;;3.01;57.84;101839.50;4499905;31;34018;-69
2022/03/18 03:53:45;;;;;;;26.45;15.82;;;;;;;3.32;57.46;101855.28;4499851;31;34215;-70
2022/03/18 03:56:13;;;;;;;27.73;14.85;;;;;;;3.47;57.61;101855.62;4500204;31;34835;-69
2022/03/18 03:58:40;;;;;;;24.77;15.27;;;;;;;3.52;55.53;101853.38;4500396;31;34959;-67
2022/03/18 04:01:07;;;;;;;26.52;15.48;;;;;;;3.37;56.29;101855.72;4500058;31;34298;-67
2022/03/18 04:03:35;;;;;;;24.55;14.25;;;;;;;3.29;56.47;101860.97;4499940;31;34587;-68
2022/03/18 04:06:03;;;;;;;25.05;14.75;;;;;;;3.29;56.54;101861.81;4500303;31;33804;-69
2022/03/18 04:08:30;;;;;;;22.33;13.40;;;;;;;3.56;55.59;101860.09;4500192;31;34167;-69
2022/03/18 04:10:58;;;;;;;23.05;13.52;;;;;;;2.89;54.81;101856.75;4500115;31;34834;-67
2022/03/18 04:13:25;;;;;;;24.27;13.10;;;;;;;3.20;53.47;101867.25;4499895;31;33578;-67
2022/03/18 04:15:52;;;;;;;21.37;12.63;;;;;;;3.12;55.20;101864.44;4499939;31;34690;-70
2022/03/18 04:18:20;;;;;;;21.58;12.45;;;;;;;3.78;51.95;101871.41;4499913;31;34839;-69
2022/03/18 04:20:47;;;;;;;22.33;12.88;;;;;;;3.44;52.33;101874.75;4499388;31;33642;-69
2022/03/18 04:23:15;;;;;;;19.85;12.37;;;;;;;3.07;54.38;101876.47;4500002;31;33594;-68
2022/03/18 04:25:42;;;;;;;22.87;12.35;;;;;;;3.53;50.18;101873.00;4499918;31;33850;-67
2022/03/18 04:28:10;;;;;;;1.05;0.95;;;;;;;3.15;51.25;101880.22;4500090;31;35032;-67
2022/03/18 04:30:37;;;;;;;22.62;12.65;;;;;;;2.97;51.05;101874.81;4499893;31;33730;-69
2022/03/18 04:33:05;;;;;;;21.95;11.55;;;;;;;3.41;50.16;101883.94;4499474;31;34311;-67
2022/03/18 04:35:32;;;;;;;19.20;11.50;;;;;;;3.25;50.58;101879.19;4499962;31;34760;-66
2022/03/18 04:38:00;;;;;;;17.75;11.45;;;;;;;3.37;49.83;101887.03;4500066;31;33958;-67
2022/03/18 04:40:28;;;;;;;19.98;12.07;;;;;;;3.10;50.13;101894.09;4499686;31;33743;-68
2022/03/18 04:42:55;;;;;;;22.23;12.20;;;;;;;3.78;46.93;101890.19;4499473;31;33643;-71
2022/03/18 04:45:23;;;;;;;22.67;13.65;;;;;;;3.61;46.44;101894.56;4499690;31;34408;-69
2022/03/18 04:47:56;;;;;;;2.15;1.58;;;;;;;3.67;46.91;101904.69;4499909;31;34261;-68
2022/03/18 04:50:24;;;;;;;20.73;11.43;;;;;;;3.65;47.63;101902.16;4499432;31;33989;-68
2022/03/18 04:52:51;;;;;;;18.60;11.02;;;;;;;3.98;45.94;101909.72;4499570;31;34301;-66
2022/03/18 04:55:19;;;;;;;14.65;9.75;;;;;;;3.93;44.92;101912.00;4499890;31;33831;-67
2022/03/18 04:57:46;;;;;;;18.33;10.68;;;;;;;3.65;45.26;101915.59;4499786;31;33960;-65
2022/03/18 05:00:14;;;;;;;17.95;10.35;;;;;;;3.87;44.27;101914.31;4499254;31;34635;-67
2022/03/18 05:02:43;;;;;;;17.27;9.75;;;;;;;3.51;45.30;101920.59;4499414;31;33634;-66
2022/03/18 05:05:11;;;;;;;18.30;10.25;;;;;;;3.64;44.45;101926.47;4499813;31;33623;-66
2022/03/18 05:07:39;;;;;;;15.20;9.57;;;;;;;3.57;45.50;101928.91;4498509;31;34216;-66
2022/03/18 05:10:08;;;;;;;17.48;9.90;;;;;;;3.91;44.85;101939.03;4499413;31;34859;-68
2022/03/18 05:12:35;;;;;;;19.58;9.55;;;;;;;3.77;44.04;101934.16;4499523;31;33575;-67
2022/03/18 05:15:03;;;;;;;17.92;8.65;;;;;;;3.41;44.79;101924.19;4499295;31;34026;-71
2022/03/18 05:17:31;;;;;;;17.92;10.20;;;;;;;3.69;43.43;101938.47;4508788;31;34055;-67
2022/03/18 05:20:02;;;;;;;13.32;8.63;;;;;;;3.34;44.49;101931.13;4515197;31;34048;-70
2022/03/18 05:22:30;;;;;;;15.00;9.32;;;;;;;3.36;44.75;101941.72;4514859;31;33868;-65
2022/03/18 05:24:59;;;;;;;16.02;9.73;;;;;;;3.79;43.46;101938.37;4514843;31;34611;-67
2022/03/18 05:27:27;;;;;;;18.42;9.35;;;;;;;3.22;44.12;101943.88;4515169;31;34296;-66
2022/03/18 05:29:55;;;;;;;14.57;8.50;;;;;;;3.72;43.83;101948.03;4514947;31;33990;-67
2022/03/18 05:32:22;;;;;;;3.50;2.90;;;;;;;3.54;43.30;101949.81;4515797;31;34405;-67
2022/03/18 05:34:50;;;;;;;14.82;8.98;;;;;;;3.88;42.70;101953.59;4516836;31;34044;-66
2022/03/18 05:37:17;;;;;;;16.58;9.75;;;;;;;3.63;42.82;101949.78;4517300;31;35276;-66
2022/03/18 05:39:45;;;;;;;3.50;2.35;;;;;;;3.67;43.26;101953.88;4517456;31;33564;-67
2022/03/18 05:42:12;;;;;;;16.20;9.73;;;;;;;3.39;43.70;101954.81;4517438;31;33667;-68
2022/03/18 05:44:40;;;;;;;15.15;8.90;;;;;;;3.54;44.19;101963.25;4515209;31;34901;-70
2022/03/18 05:47:07;;;;;;;16.65;9.02;;;;;;;3.51;43.49;101958.19;4513449;31;33992;-68
2022/03/18 05:49:35;;;;;;;19.00;9.38;;;;;;;3.16;44.31;101965.09;4506197;31;33470;-70
2022/03/18 05:52:08;;;;;;;18.12;9.60;;;;;;;3.83;43.00;101969.31;4512062;31;33339;-67
2022/03/18 05:54:35;;;;;;;18.27;9.75;;;;;;;3.51;44.15;101966.22;4512998;31;33586;-68
2022/03/18 05:57:03;;;;;;;16.77;8.60;;;;;;;3.57;43.53;101976.37;4500303;31;35179;-69
2022/03/18 05:59:33;;;;;;;17.87;9.30;;;;;;;3.74;43.10;101972.03;4514696;31;34640;-70
2022/03/18 06:02:01;;;;;;;16.58;9.82;;;;;;;3.84;43.03;101986.25;4514649;31;33653;-67
2022/03/18 06:04:31;;;;;;;15.80;9.75;;;;;;;3.54;43.58;101982.03;4514819;31;34830;-67
2022/03/18 06:06:59;;;;;;;14.70;8.93;;;;;;;3.43;43.46;101993.78;4516048;31;33853;-70
2022/03/18 06:12:12;;;;;;;17.10;9.40;;;;;;;3.43;43.13;101993.78;4514840;31;33287;-67
2022/03/18 06:14:40;;;;;;;15.45;8.90;;;;;;;3.68;42.88;101987.75;4516381;31;34565;-71
2022/03/18 06:17:07;;;;;;;18.42;10.25;;;;;;;3.15;44.08;102001.78;4514121;31;34951;-68
2022/03/18 06:19:35;;;;;;;15.93;9.70;;;;;;;3.00;44.44;102001.41;4515793;31;33850;-70
2022/03/18 06:22:03;;;;;;;14.85;9.00;;;;;;;3.26;43.90;101998.94;4516220;31;33582;-70
2022/03/18 06:24:31;;;;;;;0.85;0.80;;;;;;;3.00;44.36;102003.22;4515424;31;34008;-65
2022/03/18 06:26:59;;;;;;;17.50;9.63;;;;;;;3.18;43.76;102003.34;4516000;31;34200;-67
2022/03/18 06:29:27;;;;;;;14.75;8.50;;;;;;;3.04;43.72;102010.00;4509650;31;34132;-66
2022/03/18 06:31:56;;;;;;;14.60;8.85;;;;;;;3.63;42.11;102011.53;4510586;31;33437;-66
2022/03/18 06:34:23;;;;;;;14.55;8.55;;;;;;;3.09;43.23;102021.16;4507143;31;34540;-66
2022/03/18 06:36:53;;;;;;;0.73;0.73;;;;;;;2.82;44.30;102017.34;4513051;31;34683;-70
2022/03/18 06:39:22;;;;;;;16.70;9.25;;;;;;;3.68;42.15;102024.50;4508025;31;34647;-70
2022/03/18 06:41:49;;;;;;;13.48;8.98;;;;;;;4.09;41.04;102020.47;4509457;31;33155;-69
2022/03/18 06:44:17;;;;;;;17.02;9.43;;;;;;;3.67;42.24;102025.47;4510286;31;34053;-71
2022/03/18 06:46:45;;;;;;;1.15;1.00;;;;;;;3.86;41.78;102027.25;4500550;31;33681;-67
2022/03/18 06:49:13;;;;;;;16.98;9.38;;;;;;;3.60;42.39;102029.75;4511880;31;33673;-66
2022/03/18 06:51:41;;;;;;;18.05;9.25;;;;;;;3.31;42.68;102027.19;4513360;31;33486;-65
2022/03/18 06:54:08;;;;;;;16.87;9.30;;;;;;;3.69;42.22;102034.22;4514592;31;33493;-66
2022/03/18 06:56:38;;;;;;;15.88;9.65;;;;;;;3.73;42.53;102035.62;4514462;31;34335;-66
2022/03/18 06:59:06;;;;;;;16.85;9.38;;;;;;;3.79;42.89;102039.59;4516137;31;34730;-66
2022/03/18 07:01:34;;;;;;;15.68;9.23;;;;;;;3.93;42.23;102040.91;4508208;31;33277;-66
2022/03/18 07:04:02;;;;;;;15.07;9.90;;;;;;;4.34;42.02;102039.53;4501205;31;33999;-67
2022/03/18 07:06:29;;;;;;;18.80;9.60;;;;;;;4.39;42.29;102039.97;4514283;31;33960;-68
2022/03/18 07:08:57;;;;;;;14.80;9.68;;;;;;;3.89;41.74;102049.28;4515330;31;34099;-67
2022/03/18 07:11:24;;;;;;;13.62;8.65;;;;;;;4.02;41.56;102048.09;4515547;31;33448;-68
2022/03/18 07:13:53;;;;;;;17.17;9.82;;;;;;;3.63;42.46;102043.75;4513223;31;34853;-68
2022/03/18 07:19:07;;;;;;;17.17;9.30;;;;;;;4.09;41.12;102049.19;4515549;31;34146;-68
2022/03/18 07:21:35;;;;;;;18.12;9.38;;;;;;;3.87;41.38;102056.66;4515282;31;33782;-67
2022/03/18 07:24:02;;;;;;;15.75;9.23;;;;;;;4.01;41.08;102049.91;4515637;31;33921;-68
2022/03/18 07:26:30;;;;;;;20.48;9.38;;;;;;;3.72;41.28;102052.75;4511488;31;33841;-68
2022/03/18 07:28:57;;;;;;;13.55;8.13;;;;;;;3.94;41.04;102059.56;4510120;31;33495;-68
2022/03/18 07:31:25;;;;;;;14.55;8.65;;;;;;;3.79;41.65;102067.28;4515383;31;33585;-68
2022/03/18 07:33:52;;;;;;;16.37;9.77;;;;;;;4.13;41.12;102068.56;4512615;31;33130;-69
2022/03/18 07:36:20;;;;;;;15.85;9.18;;;;;;;4.11;41.35;102080.28;4515124;31;33701;-68
2022/03/18 07:38:48;;;;;;;15.05;9.55;;;;;;;4.04;41.46;102076.50;4514920;31;33649;-68
2022/03/18 07:41:17;;;;;;;1.85;1.45;;;;;;;3.48;43.41;102072.88;4515539;31;33374;-69
2022/03/18 07:43:44;;;;;;;18.35;10.35;;;;;;;4.09;41.33;102084.13;4512509;31;33978;-68
2022/03/18 07:46:12;;;;;;;16.80;10.02;;;;;;;4.15;41.91;102086.22;4514914;31;33819;-65
2022/03/18 07:48:43;;;;;;;17.25;10.35;;;;;;;3.94;42.75;102086.44;4512976;31;33604;-65
2022/03/18 07:51:11;;;;;;;17.77;10.48;;;;;;;3.83;43.67;102095.53;4511752;31;32751;-66
2022/03/18 07:53:38;;;;;;;17.08;10.27;;;;;;;4.34;42.95;102097.84;4507813;31;34015;-67
2022/03/18 07:56:06;;;;;;;17.48;10.07;;;;;;;4.82;41.67;102100.22;4504948;31;35068;-66
2022/03/18 07:58:33;;;;;;;19.15;10.15;;;;;;;4.52;42.20;102101.41;4514775;31;34399;-66
2022/03/18 08:01:01;;;;;;;17.83;10.95;;;;;;;4.68;42.09;102108.81;4514938;31;33637;-66
2022/03/18 08:03:28;;;;;;;19.25;10.02;;;;;;;4.52;42.85;102107.63;4509294;31;33694;-66
2022/03/18 08:05:59;;;;;;;19.73;10.88;;;;;;;4.78;42.55;102109.59;4503103;31;34789;-65
2022/03/18 08:08:26;;;;;;;19.67;10.90;;;;;;;5.16;40.18;102112.94;4508383;31;34000;-64
2022/03/18 08:10:55;;;;;;;18.77;11.05;;;;;;;5.06;41.25;102113.06;4513648;31;34736;-64
2022/03/18 08:13:22;;;;;;;21.52;11.23;;;;;;;4.76;42.12;102108.91;4505600;31;34774;-65
2022/03/18 08:15:50;;;;;;;20.30;10.95;;;;;;;4.98;41.41;102109.44;4513362;31;33567;-65
2022/03/18 08:18:19;;;;;;;1.52;1.42;;;;;;;5.06;41.87;102118.44;4514438;31;34142;-64
2022/03/18 08:20:50;;;;;;;1.75;1.65;;;;;;;5.04;42.58;102124.97;4510157;31;34193;-65
2022/03/18 08:23:18;;;;;;;20.95;11.98;;;;;;;4.73;42.80;102123.50;4504975;31;33902;-64
2022/03/18 08:25:46;;;;;;;18.35;10.55;;;;;;;4.84;43.42;102127.81;4509654;31;34293;-67
2022/03/18 08:28:13;;;;;;;17.50;10.77;;;;;;;5.35;41.08;102130.78;4501439;31;33920;-65
2022/03/18 08:30:41;;;;;;;21.40;11.30;;;;;;;5.27;41.07;102134.25;4514405;31;34471;-65
2022/03/18 08:33:08;;;;;;;18.55;10.85;;;;;;;5.57;40.12;102132.13;4514431;31;34509;-65
2022/03/18 08:35:38;;;;;;;17.05;10.45;;;;;;;5.33;41.33;102136.34;4514908;31;34259;-64
2022/03/18 08:38:08;;;;;;;20.37;11.57;;;;;;;4.82;41.72;102134.34;4506010;31;33740;-69
2022/03/18 08:40:36;;;;;;;19.05;10.05;;;;;;;6.05;40.27;102143.44;4503386;31;33194;-70
2022/03/18 08:43:07;;;;;;;18.85;10.10;;;;;;;5.89;40.42;102144.12;4507640;31;33793;-70
2022/03/18 08:45:34;;;;;;;18.98;10.85;;;;;;;6.12;40.52;102147.16;4508755;31;34578;-65
2022/03/18 08:48:02;;;;;;;21.10;12.10;;;;;;;5.62;40.65;102145.13;4492515;31;33907;-67
2022/03/18 08:50:30;;;;;;;15.18;10.48;;;;;;;5.47;40.69;102155.63;4507396;31;33724;-68
2022/03/18 08:52:58;;;;;;;17.95;10.30;;;;;;;5.76;40.86;102147.25;4490484;31;33560;-67
2022/03/18 08:55:25;;;;;;;20.15;10.77;;;;;;;6.10;39.88;102155.41;4506166;31;33811;-69
2022/03/18 08:57:53;;;;;;;17.08;10.90;;;;;;;6.58;38.74;102153.09;4504906;31;34108;-68
2022/03/18 09:00:20;;;;;;;19.60;11.75;;;;;;;6.43;39.57;102157.41;4504592;31;33476;-69
2022/03/18 09:02:49;;;;;;;18.05;11.25;;;;;;;6.47;40.09;102148.81;4504889;31;33638;-64
2022/03/18 09:05:17;;;;;;;23.05;11.40;;;;;;;7.03;38.92;102149.16;4503413;31;34053;-66
2022/03/18 09:07:45;;;;;;;18.58;10.68;;;;;;;6.81;40.11;102158.72;4506666;31;33721;-68
2022/03/18 09:10:13;;;;;;;19.65;10.77;;;;;;;7.24;38.12;102170.28;4504713;31;33337;-70
2022/03/18 09:12:48;;;;;;;18.95;10.55;;;;;;;7.38;37.95;102172.28;4506125;31;33414;-67
2022/03/18 09:15:17;;;;;;;20.98;11.88;;;;;;;6.82;39.14;102162.25;4507137;31;34188;-66
2022/03/18 09:17:44;;;;;;;20.17;11.88;;;;;;;6.75;40.01;102160.22;4506146;31;34005;-68
2022/03/18 09:20:11;;;;;;;18.40;11.60;;;;;;;6.34;41.46;102167.31;4506292;31;34331;-68
2022/03/18 09:22:40;;;;;;;20.52;12.07;;;;;;;6.61;40.73;102168.97;4507905;31;33636;-68
2022/03/18 09:25:08;;;;;;;17.75;11.77;;;;;;;6.94;40.48;102172.59;4504465;31;32911;-70
2022/03/18 09:27:36;;;;;;;25.67;12.00;;;;;;;7.09;40.60;102171.94;4498813;31;34034;-68
2022/03/18 09:30:10;;;;;;;19.95;11.80;;;;;;;7.11;40.69;102180.72;4508067;31;34667;-68
2022/03/18 09:32:42;;;;;;;21.23;11.88;;;;;;;7.34;40.81;102180.91;4507942;31;34587;-67
2022/03/18 09:35:12;;;;;;;20.48;11.95;;;;;;;6.93;42.16;102179.00;4500241;31;33824;-68
2022/03/18 09:37:39;;;;;;;22.17;13.40;;;;;;;7.56;41.60;102182.13;4506638;31;33673;-67
2022/03/18 09:40:08;;;;;;;23.27;12.70;;;;;;;7.32;42.86;102178.38;4509131;31;32111;-64
2022/03/18 09:43:00;;;;;;;22.67;13.55;;;;;;;7.45;41.12;102179.72;4501777;31;33995;-65
2022/03/18 09:45:31;;;;;;;19.35;11.68;;;;;;;7.03;43.84;102169.91;4512589;31;34109;-65
2022/03/18 09:48:01;;;;;;;22.27;12.20;;;;;;;7.69;42.33;102174.34;4499265;31;33329;-65
2022/03/18 09:50:29;;;;;;;19.42;11.90;;;;;;;8.34;39.49;102169.81;4506139;31;33626;-65
2022/03/18 09:52:56;;;;;;;18.12;11.60;;;;;;;8.21;40.64;102163.06;4498814;31;34787;-64
2022/03/18 09:55:25;;;;;;;21.98;12.65;;;;;;;7.90;41.59;102168.38;4500411;31;34135;-64
2022/03/18 09:57:53;;;;;;;25.15;13.30;;;;;;;7.83;41.96;102166.53;4511752;31;32346;-65
2022/03/18 10:00:24;;;;;;;25.62;13.57;;;;;;;8.60;40.80;102170.41;4513370;31;34264;-65
2022/03/18 10:03:09;;;;;;;21.25;13.82;;;;;;;8.68;40.67;102174.91;4503344;31;34762;-64
2022/03/18 10:05:57;;;;;;;20.95;12.02;;;;;;;8.65;39.85;102179.84;4501189;31;33841;-66
2022/03/18 10:08:28;;;;;;;21.27;13.35;;;;;;;7.62;42.48;102180.56;4510636;31;33883;-64
2022/03/18 10:10:56;;;;;;;30.88;13.07;;;;;;;7.91;43.26;102180.88;4507662;31;34357;-65
2022/03/18 10:13:23;;;;;;;21.30;12.70;;;;;;;8.41;41.56;102179.75;4507522;31;33834;-66
2022/03/18 10:15:52;;;;;;;23.60;13.07;;;;;;;9.03;41.08;102183.53;4510458;31;34967;-66
2022/03/18 10:18:20;;;;;;;21.45;13.15;;;;;;;8.93;41.65;102178.34;4507003;31;33733;-67
2022/03/18 10:20:48;;;;;;;19.30;12.75;;;;;;;9.58;40.23;102178.91;4506006;31;33410;-66
2022/03/18 10:23:15;;;;;;;22.40;13.23;;;;;;;9.30;41.77;102175.91;4508431;31;34358;-67
2022/03/18 10:25:54;;;;;;;21.77;13.25;;;;;;;8.52;43.31;102178.53;4515497;31;33972;-68
2022/03/18 10:28:43;;;;;;;23.62;13.23;;;;;;;9.31;41.31;102178.44;4513809;31;35188;-67
2022/03/18 10:31:19;;;;;;;24.63;14.18;;;;;;;8.53;42.92;102179.37;4503159;31;33629;-67
2022/03/18 10:39:38;;;;;;;23.25;13.18;;;;;;;9.30;43.03;102175.91;4505912;31;34972;-68
2022/03/18 10:42:15;;;;;;;24.60;14.15;;;;;;;10.37;39.20;102181.19;4511931;31;33987;-66
2022/03/18 10:44:45;;;;;;;23.52;13.15;;;;;;;10.09;40.00;102186.37;4504629;31;33812;-67
2022/03/18 10:47:36;;;;;;;23.75;13.40;;;;;;;9.34;42.62;102186.19;4513241;31;33950;-66
2022/03/18 10:50:10;;;;;;;25.95;14.63;;;;;;;9.61;42.36;102183.94;4515278;31;33689;-66
2022/03/18 10:52:38;;;;;;;24.50;13.90;;;;;;;9.33;42.63;102181.81;4511342;31;34188;-67
2022/03/18 10:55:23;;;;;;;24.15;14.07;;;;;;;9.69;41.85;102178.44;4505752;31;34440;-67
2022/03/18 10:57:56;;;;;;;27.37;14.27;;;;;;;9.94;40.57;102179.06;4513199;31;33982;-67
2022/03/18 11:00:25;;;;;;;24.10;14.25;;;;;;;9.33;42.35;102180.94;4502504;31;34599;-68
2022/03/18 11:02:58;;;;;;;24.10;13.82;;;;;;;8.62;45.02;102184.59;4509972;31;34310;-66
2022/03/18 11:05:28;;;;;;;27.67;15.40;;;;;;;9.75;42.67;102179.59;4512771;31;33777;-68
2022/03/18 11:07:56;;;;;;;25.08;15.00;;;;;;;10.43;41.18;102177.69;4502237;31;34958;-66
2022/03/18 11:13:12;;;;;;;29.33;15.13;;;;;;;9.82;41.82;102180.53;4507797;31;34816;-67
2022/03/18 11:15:43;;;;;;;24.75;14.57;;;;;;;9.58;42.64;102177.00;4511061;31;34050;-67
2022/03/18 11:18:13;;;;;;;25.83;14.30;;;;;;;8.82;44.77;102176.88;4508008;31;33735;-66
2022/03/18 11:20:45;;;;;;;25.92;14.70;;;;;;;9.02;44.18;102168.31;4513001;31;34552;-65
2022/03/18 11:23:25;;;;;;;27.25;15.40;;;;;;;8.61;45.09;102168.53;4515456;31;33868;-67
2022/03/18 11:26:00;;;;;;;24.60;15.18;;;;;;;9.65;42.91;102169.00;4515850;31;33514;-66
2022/03/18 11:28:29;;;;;;;23.90;14.32;;;;;;;9.41;43.42;102167.34;4498764;31;34153;-66
2022/03/18 11:31:06;;;;;;;26.73;14.07;;;;;;;9.41;44.23;102176.31;4498715;31;34857;-68
2022/03/18 11:33:37;;;;;;;25.48;15.35;;;;;;;9.83;43.16;102174.09;4509871;31;34368;-66
2022/03/18 11:36:06;;;;;;;26.98;15.27;;;;;;;9.28;44.16;102170.66;4502609;31;34663;-66
2022/03/18 11:38:57;;;;;;;29.08;14.00;;;;;;;9.92;44.10;102170.28;4515651;31;34149;-68
2022/03/18 11:41:27;;;;;;;28.48;14.80;;;;;;;10.35;43.56;102165.09;4515523;31;34026;-68
2022/03/18 11:43:55;;;;;;;22.37;13.75;;;;;;;10.59;42.22;102173.97;4501531;31;34410;-66
2022/03/18 11:46:25;;;;;;;24.23;14.23;;;;;;;10.58;42.75;102167.69;4512783;31;33872;-67
2022/03/18 11:48:59;;;;;;;25.05;14.38;;;;;;;10.92;41.59;102165.37;4504427;31;33833;-68